Time;durP1;ratioP1;P1;durP2;ratioP2;P2;SDS_P1;SDS_P2;PMS_P1;PMS_P2;Temp;Humidity;BMP_temperature;BMP_pressure;BME280_temperature;BME280_humidity;BME280_pressure;Samples;Min_cycle;Max_cycle;Signal;HPM_P1;HPM_P2
2022/11/05 00:09:40;;;;;;;;;;;;;;;12.28;78.03;99655.63;5315155;32;47794;-67
2022/11/05 00:16:42;;;;;;;;;;;;;;;12.27;77.28;99657.41;5301079;32;35608;-76
2022/11/05 00:19:43;;;;;;;;;;;;;;;11.17;81.89;99660.84;5326374;32;37116;-68
2022/11/05 00:26:06;;;;;;;;;;;;;;;10.86;83.72;99656.34;5313579;32;44696;-68
2022/11/05 00:29:08;;;;;;;;;;;;;;;11.11;81.95;99651.50;5325930;32;34757;-67
2022/11/05 00:32:09;;;;;;;;;;;;;;;11.59;80.17;99643.66;5309676;32;34925;-77
2022/11/05 00:35:11;;;;;;;;;;;;;;;10.91;82.00;99638.56;5328961;32;34934;-68
2022/11/05 00:38:13;;;;;;;;;;;;;;;11.21;80.39;99644.00;5304973;32;35414;-78
2022/11/05 00:41:15;;;;;;;;;;;;;;;10.69;81.66;99640.59;5321225;32;35472;-68
2022/11/05 00:50:58;;;;;;;;;;;;;;;10.46;82.14;99647.03;5317415;32;34364;-68
2022/11/05 00:54:00;;;;;;;;;;;;;;;9.97;85.25;99652.88;5309746;32;34618;-68
2022/11/05 00:57:02;;;;;;;;;;;;;;;10.03;84.23;99649.09;5322353;32;34542;-78
2022/11/05 01:00:05;;;;;;;;;;;;;;;9.85;86.01;99658.69;5318181;32;45062;-68
2022/11/05 01:03:12;;;;;;;;;;;;;;;9.87;85.04;99664.75;5294657;32;34787;-78
2022/11/05 01:06:15;;;;;;;;;;;;;;;9.80;85.22;99665.13;5328499;32;35547;-77
2022/11/05 01:09:16;;;;;;;;;;;;;;;9.85;86.01;99668.34;5313419;32;35315;-68
2022/11/05 01:12:18;;;;;;;;;;;;;;;10.20;83.88;99662.28;5323365;32;35920;-79
2022/11/05 01:15:20;;;;;;;;;;;;;;;9.99;83.76;99650.19;5305533;32;35075;-68
2022/11/05 01:18:22;;;;;;;;;;;;;;;9.72;86.89;99657.59;5303554;32;34397;-78
2022/11/05 01:21:24;;;;;;;;;;;;;;;9.54;86.27;99659.31;5321025;32;35302;-66
2022/11/05 01:24:26;;;;;;;;;;;;;;;9.84;85.17;99646.50;5313587;32;34726;-67
2022/11/05 01:27:28;;;;;;;;;;;;;;;9.83;85.80;99650.06;5307857;32;35245;-76
2022/11/05 01:30:30;;;;;;;;;;;;;;;9.95;84.70;99648.63;5308758;32;34201;-77
2022/11/05 01:33:32;;;;;;;;;;;;;;;9.68;87.07;99654.28;5324200;32;35104;-78
2022/11/05 01:36:34;;;;;;;;;;;;;;;9.15;88.34;99644.47;5305787;32;35286;-78
2022/11/05 01:39:35;;;;;;;;;;;;;;;9.72;85.52;99649.72;5317987;32;43385;-77
2022/11/05 01:42:37;;;;;;;;;;;;;;;9.93;85.83;99643.47;5315269;32;35660;-67
2022/11/05 01:45:39;;;;;;;;;;;;;;;9.96;85.42;99658.19;5312897;32;34910;-67
2022/11/05 01:48:41;;;;;;;;;;;;;;;10.02;84.64;99663.16;5324736;32;34796;-70
2022/11/05 01:51:43;;;;;;;;;;;;;;;10.47;83.00;99664.47;5295237;32;34882;-77
2022/11/05 01:54:45;;;;;;;;;;;;;;;10.26;83.99;99671.66;5315043;32;34323;-78
2022/11/05 01:57:47;;;;;;;;;;;;;;;10.09;84.38;99672.44;5288306;33;34375;-77
2022/11/05 02:00:49;;;;;;;;;;;;;;;9.97;83.97;99688.78;5317201;32;35081;-68
2022/11/05 02:03:51;;;;;;;;;;;;;;;10.65;82.52;99687.22;5303478;32;34944;-68
2022/11/05 02:06:53;;;;;;;;;;;;;;;10.63;82.67;99691.72;5298205;32;35707;-68
2022/11/05 02:10:05;;;;;;;;;;;;;;;10.54;81.25;99685.12;5328584;32;34296;-68
2022/11/05 02:13:07;;;;;;;;;;;;;;;10.56;81.98;99685.03;5307767;32;46947;-78
2022/11/05 02:16:30;;;;;;;;;;;;;;;10.87;80.50;99686.97;5311945;32;35013;-78
2022/11/05 02:19:44;;;;;;;;;;;;;;;10.05;81.71;99681.41;5306660;32;34862;-67
2022/11/05 02:23:22;;;;;;;;;;;;;;;10.43;81.84;99679.56;5294069;32;34737;-77
2022/11/05 02:26:44;;;;;;;;;;;;;;;10.64;81.47;99676.78;5267719;33;35638;-67
2022/11/05 02:30:02;;;;;;;;;;;;;;;9.89;82.41;99697.00;5295265;32;35059;-77
2022/11/05 02:33:19;;;;;;;;;;;;;;;10.72;80.52;99680.72;5312975;32;35095;-67
2022/11/05 02:36:27;;;;;;;;;;;;;;;9.91;83.31;99679.41;5324234;32;35544;-76
2022/11/05 02:39:48;;;;;;;;;;;;;;;9.69;84.44;99694.47;5300985;32;34607;-67
2022/11/05 02:43:14;;;;;;;;;;;;;;;9.26;88.75;99693.78;5323304;32;35009;-67
2022/11/05 02:46:15;;;;;;;;;;;;;;;10.49;82.55;99688.87;5328031;32;35154;-75
2022/11/05 02:49:29;;;;;;;;;;;;;;;10.60;81.18;99691.84;5300902;32;34538;-77
2022/11/05 02:52:33;;;;;;;;;;;;;;;10.28;81.79;99696.06;5332166;32;34806;-77
2022/11/05 02:55:36;;;;;;;;;;;;;;;10.00;84.22;99700.00;5321251;32;42993;-77
2022/11/05 02:58:38;;;;;;;;;;;;;;;9.84;83.63;99706.03;5320223;32;34988;-77
2022/11/05 03:01:40;;;;;;;;;;;;;;;9.38;85.52;99698.50;5310187;32;34951;-77
2022/11/05 03:04:42;;;;;;;;;;;;;;;9.65;84.70;99699.00;5314504;32;35376;-67
2022/11/05 03:07:46;;;;;;;;;;;;;;;9.75;84.33;99713.41;5313110;32;34841;-68
2022/11/05 03:10:55;;;;;;;;;;;;;;;9.73;84.23;99709.16;5294767;33;34422;-77
2022/11/05 03:14:02;;;;;;;;;;;;;;;9.89;84.45;99701.41;5325633;32;35989;-76
2022/11/05 03:17:10;;;;;;;;;;;;;;;9.44;83.77;99697.38;5287713;32;35489;-77
2022/11/05 03:20:15;;;;;;;;;;;;;;;9.50;85.32;99716.31;5313899;32;45009;-78
2022/11/05 03:23:19;;;;;;;;;;;;;;;10.25;81.66;99714.62;5322125;32;34551;-76
2022/11/05 03:26:28;;;;;;;;;;;;;;;9.72;82.87;99717.94;5311804;32;35778;-76
2022/11/05 03:29:35;;;;;;;;;;;;;;;10.31;81.72;99716.94;5320702;32;34888;-76
2022/11/05 03:32:41;;;;;;;;;;;;;;;10.10;82.86;99721.41;5288450;33;44679;-67
2022/11/05 03:35:47;;;;;;;;;;;;;;;10.18;82.53;99724.53;5335356;32;34895;-67
2022/11/05 03:38:49;;;;;;;;;;;;;;;10.20;81.64;99714.78;5298396;32;34935;-76
2022/11/05 03:41:51;;;;;;;;;;;;;;;10.15;82.58;99727.28;5305803;32;34822;-67
2022/11/05 03:44:54;;;;;;;;;;;;;;;10.28;80.54;99733.69;5316592;32;34655;-78
2022/11/05 03:47:56;;;;;;;;;;;;;;;10.52;79.52;99738.69;5296313;32;34781;-68
2022/11/05 03:50:59;;;;;;;;;;;;;;;9.98;81.92;99741.22;5314062;32;35018;-68
2022/11/05 03:54:02;;;;;;;;;;;;;;;9.60;83.37;99745.62;5291572;32;35203;-77
2022/11/05 03:57:05;;;;;;;;;;;;;;;9.68;84.29;99742.63;5315768;32;35865;-77
2022/11/05 04:00:08;;;;;;;;;;;;;;;10.13;82.69;99744.03;5301378;32;45458;-77
2022/11/05 04:03:09;;;;;;;;;;;;;;;9.86;82.71;99748.81;5313279;32;34830;-67
2022/11/05 04:26:25;;;;;;;;;;;;;;;9.97;80.17;99726.37;5297581;32;35914;-68
2022/11/05 04:32:54;;;;;;;;;;;;;;;9.85;81.42;99739.22;5323934;32;35621;-67
2022/11/05 04:35:56;;;;;;;;;;;;;;;10.28;79.27;99731.06;5311277;32;35760;-76
2022/11/05 04:38:58;;;;;;;;;;;;;;;9.44;82.19;99724.44;5318017;32;34803;-76
2022/11/05 04:42:00;;;;;;;;;;;;;;;9.59;81.10;99722.91;5307115;32;34629;-75
2022/11/05 04:45:01;;;;;;;;;;;;;;;9.53;82.60;99710.06;5324504;32;35202;-76
2022/11/05 04:48:03;;;;;;;;;;;;;;;9.71;80.88;99719.72;5315502;32;34682;-77
2022/11/05 04:51:05;;;;;;;;;;;;;;;9.60;81.91;99713.28;5312321;32;43600;-67
2022/11/05 04:54:07;;;;;;;;;;;;;;;9.46;81.32;99719.97;5308204;32;35141;-77
2022/11/05 04:57:09;;;;;;;;;;;;;;;9.86;78.93;99728.69;5307620;32;34808;-76
2022/11/05 05:00:11;;;;;;;;;;;;;;;9.83;79.93;99726.19;5330101;32;34758;-75
2022/11/05 05:03:12;;;;;;;;;;;;;;;9.83;79.95;99730.56;5311330;32;35581;-76
2022/11/05 05:06:15;;;;;;;;;;;;;;;10.44;78.23;99733.81;5335606;32;35185;-76
2022/11/05 05:09:17;;;;;;;;;;;;;;;10.07;78.13;99739.94;5321596;32;34922;-78
2022/11/05 05:12:18;;;;;;;;;;;;;;;10.12;78.79;99732.69;5300522;32;34901;-77
2022/11/05 05:15:20;;;;;;;;;;;;;;;9.76;80.38;99740.50;5321693;32;34885;-67
2022/11/05 05:18:24;;;;;;;;;;;;;;;9.52;80.50;99731.97;5295339;32;35292;-66
2022/11/05 05:21:37;;;;;;;;;;;;;;;9.58;80.24;99730.84;5328580;32;34404;-66
2022/11/05 05:24:39;;;;;;;;;;;;;;;9.55;80.43;99744.13;5312918;32;44929;-78
2022/11/05 05:27:41;;;;;;;;;;;;;;;9.62;80.34;99742.91;5304835;32;35346;-67
2022/11/05 05:30:43;;;;;;;;;;;;;;;9.71;79.03;99745.94;5325433;32;35666;-76
2022/11/05 05:33:45;;;;;;;;;;;;;;;9.32;81.15;99742.50;5309005;32;34797;-68
2022/11/05 05:36:47;;;;;;;;;;;;;;;9.42;81.54;99738.56;5320212;32;37326;-77
2022/11/05 05:39:48;;;;;;;;;;;;;;;9.08;82.39;99739.16;5310650;32;34983;-77
2022/11/05 05:42:54;;;;;;;;;;;;;;;8.89;83.79;99754.84;5325129;32;35080;-76
2022/11/05 05:45:56;;;;;;;;;;;;;;;9.66;80.70;99757.56;5298354;32;35258;-76
2022/11/05 05:48:58;;;;;;;;;;;;;;;9.78;79.98;99764.91;5311479;32;34651;-77
2022/11/05 05:52:00;;;;;;;;;;;;;;;9.53;79.16;99757.28;5322648;32;35286;-76
2022/11/05 05:55:02;;;;;;;;;;;;;;;9.43;80.48;99763.88;5317137;32;34529;-67
2022/11/05 05:58:03;;;;;;;;;;;;;;;10.29;76.74;99766.91;5323948;32;33847;-77
2022/11/05 06:01:07;;;;;;;;;;;;;;;9.96;76.89;99784.22;5312327;32;46690;-67
2022/11/05 06:04:09;;;;;;;;;;;;;;;9.73;78.49;99791.38;5331048;32;34276;-77
2022/11/05 06:07:11;;;;;;;;;;;;;;;9.38;79.74;99792.91;5319920;32;35112;-66
2022/11/05 06:10:13;;;;;;;;;;;;;;;9.51;79.91;99803.72;5314919;32;35617;-76
2022/11/05 06:13:14;;;;;;;;;;;;;;;9.63;79.56;99808.44;5326009;32;34846;-67
2022/11/05 06:16:18;;;;;;;;;;;;;;;9.55;79.10;99807.94;5298519;32;35107;-68
2022/11/05 06:19:20;;;;;;;;;;;;;;;9.56;78.77;99807.00;5323919;32;35384;-68
2022/11/05 06:22:21;;;;;;;;;;;;;;;9.50;78.61;99813.38;5314204;32;35210;-76
2022/11/05 06:25:24;;;;;;;;;;;;;;;9.84;78.53;99813.62;5330746;32;34620;-67
2022/11/05 06:28:25;;;;;;;;;;;;;;;9.48;79.21;99809.97;5310695;32;35071;-67
2022/11/05 06:31:27;;;;;;;;;;;;;;;9.74;78.78;99816.69;5311485;32;34372;-67
2022/11/05 06:34:29;;;;;;;;;;;;;;;10.04;77.29;99818.81;5315235;32;37436;-77
2022/11/05 06:37:32;;;;;;;;;;;;;;;10.18;76.94;99826.09;5287056;33;35337;-67
2022/11/05 06:40:34;;;;;;;;;;;;;;;10.69;74.50;99827.19;5334627;32;35117;-68
2022/11/05 06:43:36;;;;;;;;;;;;;;;10.25;75.83;99824.91;5309705;32;44406;-76
2022/11/05 06:46:38;;;;;;;;;;;;;;;10.48;75.06;99836.97;5310738;32;34751;-67
2022/11/05 06:49:44;;;;;;;;;;;;;;;10.77;75.17;99833.78;5314769;32;34854;-78
2022/11/05 06:52:51;;;;;;;;;;;;;;;10.80;74.32;99838.88;5310461;32;35398;-76
2022/11/05 06:55:53;;;;;;;;;;;;;;;10.52;76.07;99833.28;5331633;32;34953;-67
2022/11/05 06:58:54;;;;;;;;;;;;;;;9.94;77.65;99844.66;5312315;32;34739;-68
2022/11/05 07:01:57;;;;;;;;;;;;;;;10.13;76.77;99843.84;5325200;32;35060;-77
2022/11/05 07:04:59;;;;;;;;;;;;;;;10.50;77.06;99843.00;5319521;32;34349;-77
2022/11/05 07:08:00;;;;;;;;;;;;;;;9.88;77.97;99852.81;5334504;32;34208;-67
2022/11/05 07:11:02;;;;;;;;;;;;;;;10.30;77.52;99836.91;5315246;32;35095;-66
2022/11/05 07:14:04;;;;;;;;;;;;;;;10.93;74.97;99841.78;5311104;32;35017;-67
2022/11/05 07:17:06;;;;;;;;;;;;;;;10.78;75.59;99830.22;5302146;32;44942;-77
2022/11/05 07:20:09;;;;;;;;;;;;;;;10.51;75.75;99842.06;5313388;32;34363;-77
2022/11/05 07:23:12;;;;;;;;;;;;;;;11.41;73.42;99840.25;5318315;32;34484;-67
2022/11/05 07:26:14;;;;;;;;;;;;;;;10.61;75.52;99847.72;5311157;32;34309;-67
2022/11/05 07:29:16;;;;;;;;;;;;;;;10.74;75.37;99843.59;5323715;32;35611;-77
2022/11/05 07:32:17;;;;;;;;;;;;;;;10.98;74.55;99839.78;5313353;32;34845;-77
2022/11/05 07:35:19;;;;;;;;;;;;;;;10.90;73.29;99848.97;5313356;32;34530;-77
2022/11/05 07:38:21;;;;;;;;;;;;;;;10.67;73.79;99845.66;5326300;32;34860;-66
2022/11/05 07:41:23;;;;;;;;;;;;;;;10.78;74.03;99843.38;5307127;32;34704;-78
2022/11/05 07:44:25;;;;;;;;;;;;;;;11.09;73.40;99847.13;5328414;32;35401;-67
2022/11/05 07:47:27;;;;;;;;;;;;;;;11.48;72.16;99839.00;5307876;32;35000;-77
2022/11/05 07:50:30;;;;;;;;;;;;;;;11.62;71.93;99843.56;5325582;32;35247;-67
2022/11/05 07:53:31;;;;;;;;;;;;;;;11.94;68.96;99852.44;5314482;32;35664;-77
2022/11/05 07:56:33;;;;;;;;;;;;;;;11.63;71.26;99847.87;5295811;32;35061;-67
2022/11/05 07:59:35;;;;;;;;;;;;;;;11.92;69.82;99852.50;5328375;32;42502;-77
2022/11/05 08:02:37;;;;;;;;;;;;;;;12.29;68.33;99839.97;5310246;32;35269;-67
2022/11/05 08:05:42;;;;;;;;;;;;;;;12.02;68.77;99841.47;5339062;32;35091;-67
2022/11/05 08:08:43;;;;;;;;;;;;;;;11.52;71.05;99843.16;5314313;32;35628;-67
2022/11/05 08:11:45;;;;;;;;;;;;;;;11.89;70.74;99849.19;5317650;32;34954;-66
2022/11/05 08:14:47;;;;;;;;;;;;;;;11.28;71.37;99844.44;5317548;32;35146;-78
2022/11/05 08:17:49;;;;;;;;;;;;;;;12.07;69.21;99842.09;5287959;32;34823;-68
2022/11/05 08:20:51;;;;;;;;;;;;;;;11.97;67.77;99838.22;5328664;32;34849;-78
2022/11/05 08:23:53;;;;;;;;;;;;;;;12.14;67.81;99830.28;5313516;32;35383;-78
2022/11/05 08:26:54;;;;;;;;;;;;;;;12.27;67.90;99830.47;5324892;32;34527;-68
2022/11/05 08:29:56;;;;;;;;;;;;;;;12.59;66.42;99829.53;5313571;32;35058;-68
2022/11/05 08:32:59;;;;;;;;;;;;;;;11.75;68.80;99826.19;5318243;32;34893;-76
2022/11/05 08:36:02;;;;;;;;;;;;;;;12.02;68.31;99820.41;5317892;32;34433;-78
2022/11/05 08:39:04;;;;;;;;;;;;;;;12.35;67.32;99821.19;5288635;32;35302;-67
2022/11/05 08:42:05;;;;;;;;;;;;;;;12.09;67.28;99827.88;5314802;32;46467;-77
2022/11/05 08:45:07;;;;;;;;;;;;;;;12.59;65.24;99829.53;5310523;32;35041;-78
2022/11/05 08:48:10;;;;;;;;;;;;;;;12.28;67.47;99829.53;5316450;32;36837;-67
2022/11/05 08:51:12;;;;;;;;;;;;;;;12.69;65.63;99825.44;5287416;32;34879;-68
2022/11/05 08:54:14;;;;;;;;;;;;;;;11.98;68.04;99830.28;5311513;32;34942;-68
2022/11/05 08:57:16;;;;;;;;;;;;;;;11.17;70.50;99829.19;5317173;32;35294;-78
2022/11/05 09:00:18;;;;;;;;;;;;;;;11.70;69.95;99832.63;5310337;32;34859;-76
2022/11/05 09:03:20;;;;;;;;;;;;;;;12.90;65.65;99833.91;5309116;32;35431;-67
2022/11/05 09:06:22;;;;;;;;;;;;;;;13.17;63.71;99835.91;5312113;32;36059;-67
2022/11/05 09:09:24;;;;;;;;;;;;;;;13.14;64.35;99841.37;5329624;32;34461;-67
2022/11/05 09:12:25;;;;;;;;;;;;;;;12.94;64.69;99853.88;5301906;32;35709;-68
2022/11/05 09:15:27;;;;;;;;;;;;;;;12.90;64.20;99844.47;5288130;32;857294;-67
2022/11/05 09:18:29;;;;;;;;;;;;;;;13.59;62.39;99866.00;5311554;32;36434;-67
2022/11/05 09:21:31;;;;;;;;;;;;;;;12.76;64.33;99865.50;5313044;32;35076;-67
2022/11/05 09:24:33;;;;;;;;;;;;;;;12.48;66.75;99858.25;5329645;32;35008;-67
2022/11/05 09:27:35;;;;;;;;;;;;;;;12.16;66.61;99863.50;5302085;32;34807;-67
2022/11/05 09:30:40;;;;;;;;;;;;;;;11.81;68.34;99872.44;5329030;32;45421;-68
2022/11/05 09:33:42;;;;;;;;;;;;;;;12.81;64.93;99873.13;5295984;32;35182;-69
2022/11/05 09:36:44;;;;;;;;;;;;;;;12.60;65.47;99868.12;5316292;32;35000;-67
2022/11/05 09:39:46;;;;;;;;;;;;;;;12.99;63.84;99867.66;5320032;32;35487;-69
2022/11/05 09:42:51;;;;;;;;;;;;;;;12.52;65.31;99865.06;5313984;32;35415;-67
2022/11/05 09:45:53;;;;;;;;;;;;;;;12.30;66.71;99867.16;5314749;32;35544;-73
2022/11/05 09:49:03;;;;;;;;;;;;;;;12.41;66.67;99867.44;5292785;33;35118;-78
2022/11/05 09:52:05;;;;;;;;;;;;;;;12.71;65.75;99860.47;5303172;32;35720;-68
2022/11/05 09:55:26;;;;;;;;;;;;;;;13.21;64.01;99859.41;5296604;32;47151;-79
2022/11/05 09:58:43;;;;;;;;;;;;;;;12.90;64.55;99860.28;5301620;32;35440;-69
2022/11/05 10:01:45;;;;;;;;;;;;;;;13.46;62.66;99855.31;5331988;32;46989;-67
2022/11/05 10:04:48;;;;;;;;;;;;;;;12.83;64.75;99866.84;5300761;32;33744;-78
2022/11/05 10:07:53;;;;;;;;;;;;;;;13.48;62.93;99861.38;5322812;32;35088;-76
2022/11/05 10:11:00;;;;;;;;;;;;;;;13.25;63.48;99863.56;5297771;32;35636;-69
2022/11/05 10:14:05;;;;;;;;;;;;;;;13.43;62.39;99864.28;5309387;32;34682;-79
2022/11/05 10:17:09;;;;;;;;;;;;;;;12.95;65.11;99860.03;5305094;32;44888;-79
2022/11/05 10:20:29;;;;;;;;;;;;;;;13.50;61.49;99870.03;5296500;32;35558;-67
2022/11/05 10:23:31;;;;;;;;;;;;;;;13.43;63.53;99869.56;5328710;32;34724;-66
2022/11/05 10:26:33;;;;;;;;;;;;;;;13.31;62.70;99867.62;5293445;32;34287;-68
2022/11/05 10:29:35;;;;;;;;;;;;;;;12.85;64.46;99866.75;5306633;32;46440;-77
2022/11/05 10:32:39;;;;;;;;;;;;;;;14.01;60.89;99873.97;5325183;32;44401;-77
2022/11/05 10:35:45;;;;;;;;;;;;;;;13.88;61.48;99861.59;5319382;32;34700;-77
2022/11/05 10:38:47;;;;;;;;;;;;;;;13.26;63.31;99864.41;5335217;32;34926;-68
2022/11/05 10:41:58;;;;;;;;;;;;;;;13.24;63.56;99868.94;5303096;32;34815;-77
2022/11/05 10:45:03;;;;;;;;;;;;;;;13.88;60.97;99861.59;5326964;32;35632;-78
2022/11/05 10:48:23;;;;;;;;;;;;;;;13.65;61.50;99853.25;5285233;32;44851;-68
2022/11/05 10:51:25;;;;;;;;;;;;;;;13.01;63.09;99870.25;5302163;32;34873;-77
2022/11/05 10:54:29;;;;;;;;;;;;;;;13.50;62.69;99875.31;5327099;32;34347;-80
2022/11/05 10:57:35;;;;;;;;;;;;;;;13.74;61.12;99870.38;5300300;32;34477;-77
2022/11/05 11:00:37;;;;;;;;;;;;;;;13.62;62.11;99881.66;5323517;32;44858;-67
2022/11/05 11:03:43;;;;;;;;;;;;;;;13.77;61.99;99880.72;5311977;32;34969;-78
2022/11/05 11:07:03;;;;;;;;;;;;;;;13.37;62.55;99888.38;5315309;32;35655;-77
2022/11/05 11:10:05;;;;;;;;;;;;;;;13.71;63.24;99887.22;5328994;32;46684;-80
2022/11/05 11:13:20;;;;;;;;;;;;;;;13.76;60.59;99892.25;5308708;32;35015;-77
2022/11/05 11:16:23;;;;;;;;;;;;;;;13.90;60.96;99886.13;5310864;32;34948;-69
2022/11/05 11:19:32;;;;;;;;;;;;;;;14.79;58.25;99894.69;5307305;32;34878;-68
2022/11/05 11:22:34;;;;;;;;;;;;;;;14.37;58.73;99899.09;5323253;32;34878;-68
2022/11/05 11:25:39;;;;;;;;;;;;;;;13.98;60.49;99897.09;5320800;32;45266;-78
2022/11/05 11:28:49;;;;;;;;;;;;;;;14.46;59.65;99893.22;5308596;32;35364;-68
2022/11/05 11:31:55;;;;;;;;;;;;;;;14.91;58.24;99885.94;5317060;32;35251;-67
2022/11/05 11:34:57;;;;;;;;;;;;;;;13.00;63.09;99897.53;5299351;32;34682;-78
2022/11/05 11:37:59;;;;;;;;;;;;;;;13.87;61.58;99887.19;5322211;32;34728;-67
2022/11/05 11:41:40;;;;;;;;;;;;;;;13.74;61.46;99896.78;5292290;32;34943;-67
2022/11/05 11:44:43;;;;;;;;;;;;;;;14.55;58.66;99889.16;5234309;33;35992;-68
2022/11/05 11:47:46;;;;;;;;;;;;;;;14.36;59.63;99887.66;5256334;33;34612;-80
2022/11/05 11:50:48;;;;;;;;;;;;;;;13.69;61.24;99901.47;5314752;32;34863;-69
2022/11/05 11:53:49;;;;;;;;;;;;;;;13.95;61.10;99898.12;5324828;32;34418;-69
2022/11/05 11:56:51;;;;;;;;;;;;;;;14.81;58.81;99892.78;5300425;32;34954;-67
2022/11/05 11:59:54;;;;;;;;;;;;;;;14.58;59.34;99891.63;5304057;32;34532;-78
2022/11/05 12:03:22;;;;;;;;;;;;;;;14.13;60.32;99893.50;5328809;32;44769;-78
2022/11/05 12:06:33;;;;;;;;;;;;;;;14.49;59.54;99887.78;5297309;32;34375;-78
2022/11/05 12:09:58;;;;;;;;;;;;;;;13.58;62.34;99893.34;5315534;32;35057;-78
2022/11/05 12:13:15;;;;;;;;;;;;;;;13.82;61.73;99887.44;5300003;32;35656;-69
2022/11/05 12:16:25;;;;;;;;;;;;;;;13.43;62.41;99888.03;5307176;32;35111;-67
2022/11/05 12:19:33;;;;;;;;;;;;;;;13.69;62.16;99896.19;5321210;32;35037;-78
2022/11/05 12:22:44;;;;;;;;;;;;;;;13.96;61.75;99897.16;5305545;32;44850;-68
2022/11/05 12:26:02;;;;;;;;;;;;;;;14.55;59.66;99903.22;5329001;32;34782;-68
2022/11/05 12:29:14;;;;;;;;;;;;;;;14.37;60.14;99917.59;5291617;32;36412;-68
2022/11/05 12:32:23;;;;;;;;;;;;;;;13.82;61.40;99923.56;5308446;32;34954;-68
2022/11/05 12:35:38;;;;;;;;;;;;;;;14.21;60.34;99920.31;5328221;32;34928;-67
2022/11/05 12:38:51;;;;;;;;;;;;;;;14.18;59.37;99932.87;5290271;32;35195;-69
2022/11/05 12:42:01;;;;;;;;;;;;;;;13.95;61.56;99929.81;5312027;32;35209;-67
2022/11/05 12:45:11;;;;;;;;;;;;;;;13.66;61.00;99930.72;5318838;32;35397;-68
2022/11/05 12:48:27;;;;;;;;;;;;;;;13.79;61.92;99924.63;5287326;33;44484;-68
2022/11/05 12:51:40;;;;;;;;;;;;;;;14.30;60.26;99927.69;5327246;32;44580;-68
2022/11/05 12:54:41;;;;;;;;;;;;;;;14.39;59.94;99936.00;5313523;32;35041;-67
2022/11/05 12:57:44;;;;;;;;;;;;;;;13.78;61.16;99945.81;5323096;32;35105;-76
2022/11/05 13:00:47;;;;;;;;;;;;;;;14.56;59.10;99951.69;5300126;32;34812;-78
2022/11/05 13:03:51;;;;;;;;;;;;;;;13.95;60.73;99950.97;5303280;32;35054;-78
2022/11/05 13:06:53;;;;;;;;;;;;;;;13.70;62.52;99956.00;5321769;32;35533;-79
2022/11/05 13:09:57;;;;;;;;;;;;;;;13.39;62.63;99947.22;5311183;32;36000;-68
2022/11/05 13:13:19;;;;;;;;;;;;;;;14.14;60.84;99949.84;5310446;32;34333;-77
2022/11/05 13:16:23;;;;;;;;;;;;;;;14.32;60.85;99954.03;5278977;32;35301;-78
2022/11/05 13:19:26;;;;;;;;;;;;;;;14.38;59.65;99948.34;5309145;32;35631;-68
2022/11/05 13:22:32;;;;;;;;;;;;;;;13.58;62.85;99964.63;5327575;32;34153;-67
2022/11/05 13:25:35;;;;;;;;;;;;;;;13.85;62.46;99967.44;5297207;32;35096;-79
2022/11/05 13:28:39;;;;;;;;;;;;;;;13.69;62.66;99959.56;5304386;33;46735;-78
2022/11/05 13:31:47;;;;;;;;;;;;;;;13.80;61.69;99957.16;5307437;32;35832;-77
2022/11/05 13:34:56;;;;;;;;;;;;;;;13.21;63.99;99964.13;5307107;32;35050;-67
2022/11/05 13:41:27;;;;;;;;;;;;;;;13.77;61.96;99960.81;5307530;32;35283;-67
2022/11/05 13:44:28;;;;;;;;;;;;;;;13.54;63.34;99966.62;5326861;32;34871;-77
2022/11/05 13:47:36;;;;;;;;;;;;;;;13.83;61.44;99963.09;5308640;32;34785;-68
2022/11/05 13:50:57;;;;;;;;;;;;;;;13.33;63.56;99957.28;5345044;32;44533;-79
2022/11/05 13:54:17;;;;;;;;;;;;;;;13.15;64.16;99964.44;5304909;32;35401;-77
2022/11/05 13:57:21;;;;;;;;;;;;;;;13.56;62.35;99959.44;5292468;32;35438;-79
2022/11/05 14:00:25;;;;;;;;;;;;;;;13.57;62.03;99965.56;5330167;32;35014;-76
2022/11/05 14:03:27;;;;;;;;;;;;;;;13.39;62.70;99981.53;5300368;32;34944;-68
2022/11/05 14:06:35;;;;;;;;;;;;;;;13.59;62.45;99979.53;5330645;32;34167;-78
2022/11/05 14:09:37;;;;;;;;;;;;;;;13.71;61.70;99984.09;5331150;32;46474;-67
2022/11/05 14:12:39;;;;;;;;;;;;;;;13.51;62.46;99988.75;5313785;32;34814;-77
2022/11/05 14:15:51;;;;;;;;;;;;;;;13.11;63.90;99976.09;5312076;32;34907;-78
2022/11/05 14:18:54;;;;;;;;;;;;;;;13.34;63.24;99972.19;5297641;32;35192;-78
2022/11/05 14:21:56;;;;;;;;;;;;;;;13.06;64.63;99978.13;5326316;32;35159;-68
2022/11/05 14:24:59;;;;;;;;;;;;;;;13.24;63.00;99972.69;5311214;32;34831;-77
2022/11/05 14:28:01;;;;;;;;;;;;;;;12.84;65.40;99986.37;5321667;32;34495;-68
2022/11/05 14:31:12;;;;;;;;;;;;;;;12.40;66.42;99985.19;5313325;32;34996;-69
2022/11/05 14:34:13;;;;;;;;;;;;;;;13.10;63.41;99993.72;5310603;32;43342;-68
2022/11/05 14:37:15;;;;;;;;;;;;;;;13.45;62.82;99993.53;5323587;32;35522;-77
2022/11/05 14:40:20;;;;;;;;;;;;;;;13.14;63.62;100002.31;5312260;32;34496;-67
2022/11/05 14:43:23;;;;;;;;;;;;;;;13.46;62.32;100006.66;5325801;32;35007;-78
2022/11/05 14:46:33;;;;;;;;;;;;;;;12.51;65.39;100012.78;5310997;32;34998;-77
2022/11/05 14:49:36;;;;;;;;;;;;;;;12.47;66.14;100019.97;5298238;32;43341;-69
2022/11/05 14:52:38;;;;;;;;;;;;;;;13.08;62.92;100010.56;5325971;32;35457;-78
2022/11/05 14:55:41;;;;;;;;;;;;;;;12.51;65.12;100016.25;5315011;32;34932;-77
2022/11/05 14:58:43;;;;;;;;;;;;;;;12.38;65.56;100010.78;5305460;33;34924;-67
2022/11/05 15:01:45;;;;;;;;;;;;;;;12.96;64.06;100017.38;5295640;32;35366;-67
2022/11/05 15:04:49;;;;;;;;;;;;;;;12.57;64.69;100021.22;5322750;32;35510;-68
2022/11/05 15:07:54;;;;;;;;;;;;;;;13.35;62.04;100019.59;5296602;32;34765;-78
2022/11/05 15:11:13;;;;;;;;;;;;;;;13.12;63.11;100028.75;5307482;32;35197;-78
2022/11/05 15:14:15;;;;;;;;;;;;;;;13.58;61.56;100030.63;5324906;32;36666;-67
2022/11/05 15:17:19;;;;;;;;;;;;;;;12.82;64.16;100020.75;5293564;32;34922;-79
2022/11/05 15:20:21;;;;;;;;;;;;;;;12.76;64.47;100023.72;5314138;32;35067;-75
2022/11/05 15:23:24;;;;;;;;;;;;;;;13.35;62.60;100027.53;5307488;32;34714;-69
2022/11/05 15:26:35;;;;;;;;;;;;;;;13.27;62.54;100032.41;5312348;32;35954;-67
2022/11/05 15:29:37;;;;;;;;;;;;;;;12.90;64.51;100037.00;5330638;32;44558;-68
2022/11/05 15:32:39;;;;;;;;;;;;;;;12.47;66.23;100048.97;5315598;32;35517;-68
2022/11/05 15:35:41;;;;;;;;;;;;;;;12.38;66.02;100042.41;5325884;32;35209;-77
2022/11/05 15:38:43;;;;;;;;;;;;;;;12.66;66.13;100052.34;5297697;32;34910;-78
2022/11/05 15:42:06;;;;;;;;;;;;;;;12.81;66.45;100045.41;5325033;32;34938;-68
2022/11/05 15:45:16;;;;;;;;;;;;;;;12.31;66.78;100053.34;5333930;32;45990;-78
2022/11/05 15:48:18;;;;;;;;;;;;;;;12.45;67.67;100049.06;5303581;32;34955;-70
2022/11/05 15:51:21;;;;;;;;;;;;;;;12.33;66.98;100049.69;5314528;32;35058;-69
2022/11/05 15:54:23;;;;;;;;;;;;;;;12.25;67.79;100051.03;5311876;32;34784;-68
2022/11/05 15:57:31;;;;;;;;;;;;;;;12.05;69.47;100054.69;5324890;32;34759;-78
2022/11/05 16:00:33;;;;;;;;;;;;;;;11.86;69.59;100071.41;5313854;32;35655;-78
2022/11/05 16:03:36;;;;;;;;;;;;;;;12.99;65.65;100062.03;5300026;32;47180;-76
2022/11/05 16:06:38;;;;;;;;;;;;;;;12.82;65.84;100060.31;5331145;32;35681;-67
2022/11/05 16:09:42;;;;;;;;;;;;;;;12.09;67.77;100077.28;5297767;32;35345;-68
2022/11/05 16:12:44;;;;;;;;;;;;;;;11.95;68.14;100071.88;5325192;32;35118;-69
2022/11/05 16:15:56;;;;;;;;;;;;;;;12.40;67.33;100076.59;5301937;32;36333;-78
2022/11/05 16:18:58;;;;;;;;;;;;;;;12.52;65.98;100080.38;5312843;32;34997;-68
2022/11/05 16:22:01;;;;;;;;;;;;;;;12.82;65.29;100083.19;5316530;32;35440;-68
2022/11/05 16:25:19;;;;;;;;;;;;;;;12.29;67.19;100092.09;5330809;32;34708;-78
2022/11/05 16:28:25;;;;;;;;;;;;;;;12.96;65.80;100099.13;5323551;32;34742;-78
2022/11/05 16:31:28;;;;;;;;;;;;;;;11.68;70.94;100098.59;5299119;32;35048;-68
2022/11/05 16:34:30;;;;;;;;;;;;;;;12.88;67.24;100102.19;5324123;32;34157;-67
2022/11/05 16:37:38;;;;;;;;;;;;;;;12.47;67.99;100106.97;5305819;32;34483;-78
2022/11/05 16:40:40;;;;;;;;;;;;;;;12.31;69.22;100109.53;5309428;32;44708;-77
2022/11/05 16:43:49;;;;;;;;;;;;;;;12.56;68.16;100105.63;5323056;32;37095;-67
2022/11/05 16:46:51;;;;;;;;;;;;;;;12.57;68.11;100108.22;5312791;32;34954;-68
2022/11/05 16:49:53;;;;;;;;;;;;;;;12.06;69.39;100119.59;5328440;32;34763;-76
2022/11/05 16:52:55;;;;;;;;;;;;;;;12.13;70.23;100116.59;5313379;32;34791;-67